sensor_id;sensor_type;location;lat;lon;timestamp;P1;durP1;ratioP1;P2;durP2;ratioP2
59960;SDS011;55902;-37.980;-63.602;2022-08-19T00:02:12;18.33;;;10.73;;
59960;SDS011;55902;-37.980;-63.602;2022-08-19T00:04:38;31.27;;;15.40;;
59960;SDS011;55902;-37.980;-63.602;2022-08-19T00:07:06;37.47;;;18.92;;
59960;SDS011;55902;-37.980;-63.602;2022-08-19T00:09:33;38.50;;;20.63;;
59960;SDS011;55902;-37.980;-63.602;2022-08-19T00:12:00;44.45;;;21.50;;
59960;SDS011;55902;-37.980;-63.602;2022-08-19T00:14:28;34.45;;;18.70;;
59960;SDS011;55902;-37.980;-63.602;2022-08-19T00:16:58;26.63;;;15.00;;
59960;SDS011;55902;-37.980;-63.602;2022-08-19T00:19:35;25.05;;;13.43;;
59960;SDS011;55902;-37.980;-63.602;2022-08-19T00:22:03;24.75;;;12.93;;
59960;SDS011;55902;-37.980;-63.602;2022-08-19T00:24:30;20.50;;;10.68;;
59960;SDS011;55902;-37.980;-63.602;2022-08-19T00:26:57;17.58;;;9.75;;
59960;SDS011;55902;-37.980;-63.602;2022-08-19T00:29:25;12.55;;;7.22;;
59960;SDS011;55902;-37.980;-63.602;2022-08-19T00:31:52;9.43;;;5.50;;
59960;SDS011;55902;-37.980;-63.602;2022-08-19T00:34:21;8.95;;;4.60;;
59960;SDS011;55902;-37.980;-63.602;2022-08-19T00:36:49;5.50;;;3.47;;
59960;SDS011;55902;-37.980;-63.602;2022-08-19T00:39:16;3.53;;;2.90;;
59960;SDS011;55902;-37.980;-63.602;2022-08-19T00:41:44;7.20;;;2.97;;
59960;SDS011;55902;-37.980;-63.602;2022-08-19T00:44:15;6.70;;;2.60;;
59960;SDS011;55902;-37.980;-63.602;2022-08-19T00:46:48;5.00;;;2.70;;
59960;SDS011;55902;-37.980;-63.602;2022-08-19T00:51:51;3.90;;;2.08;;
59960;SDS011;55902;-37.980;-63.602;2022-08-19T00:54:22;3.60;;;2.00;;
59960;SDS011;55902;-37.980;-63.602;2022-08-19T00:56:49;7.93;;;2.38;;
59960;SDS011;55902;-37.980;-63.602;2022-08-19T00:59:20;3.33;;;1.90;;
59960;SDS011;55902;-37.980;-63.602;2022-08-19T01:01:47;5.53;;;2.10;;
59960;SDS011;55902;-37.980;-63.602;2022-08-19T01:04:14;2.00;;;1.70;;
59960;SDS011;55902;-37.980;-63.602;2022-08-19T01:06:41;1.98;;;1.70;;
59960;SDS011;55902;-37.980;-63.602;2022-08-19T01:09:08;1.77;;;1.67;;
59960;SDS011;55902;-37.980;-63.602;2022-08-19T01:11:37;2.40;;;1.73;;
59960;SDS011;55902;-37.980;-63.602;2022-08-19T01:14:07;1.98;;;1.80;;
59960;SDS011;55902;-37.980;-63.602;2022-08-19T01:16:35;4.63;;;2.30;;
59960;SDS011;55902;-37.980;-63.602;2022-08-19T01:19:20;1.85;;;1.60;;
59960;SDS011;55902;-37.980;-63.602;2022-08-19T01:24:50;1.85;;;1.70;;
59960;SDS011;55902;-37.980;-63.602;2022-08-19T01:27:17;2.00;;;1.80;;
59960;SDS011;55902;-37.980;-63.602;2022-08-19T01:29:44;1.90;;;1.80;;
59960;SDS011;55902;-37.980;-63.602;2022-08-19T01:32:13;2.28;;;1.80;;
59960;SDS011;55902;-37.980;-63.602;2022-08-19T01:34:42;1.85;;;1.70;;
59960;SDS011;55902;-37.980;-63.602;2022-08-19T01:37:16;3.28;;;2.10;;
59960;SDS011;55902;-37.980;-63.602;2022-08-19T01:39:43;2.35;;;2.15;;
59960;SDS011;55902;-37.980;-63.602;2022-08-19T01:42:09;2.95;;;2.50;;
59960;SDS011;55902;-37.980;-63.602;2022-08-19T01:44:39;3.25;;;2.70;;
59960;SDS011;55902;-37.980;-63.602;2022-08-19T01:47:11;2.75;;;2.30;;
59960;SDS011;55902;-37.980;-63.602;2022-08-19T01:49:38;3.05;;;2.20;;
59960;SDS011;55902;-37.980;-63.602;2022-08-19T01:52:10;3.13;;;2.20;;
59960;SDS011;55902;-37.980;-63.602;2022-08-19T01:54:37;2.30;;;2.10;;
59960;SDS011;55902;-37.980;-63.602;2022-08-19T01:57:05;2.45;;;2.25;;
59960;SDS011;55902;-37.980;-63.602;2022-08-19T01:59:34;3.28;;;2.10;;
59960;SDS011;55902;-37.980;-63.602;2022-08-19T02:02:05;3.28;;;2.10;;
59960;SDS011;55902;-37.980;-63.602;2022-08-19T02:04:36;2.40;;;2.20;;
59960;SDS011;55902;-37.980;-63.602;2022-08-19T02:07:04;2.47;;;2.00;;
59960;SDS011;55902;-37.980;-63.602;2022-08-19T02:09:33;2.20;;;2.00;;
59960;SDS011;55902;-37.980;-63.602;2022-08-19T02:12:00;2.17;;;1.98;;
59960;SDS011;55902;-37.980;-63.602;2022-08-19T02:14:27;2.30;;;2.10;;
59960;SDS011;55902;-37.980;-63.602;2022-08-19T02:16:58;2.30;;;2.10;;
59960;SDS011;55902;-37.980;-63.602;2022-08-19T02:19:25;2.25;;;2.05;;
59960;SDS011;55902;-37.980;-63.602;2022-08-19T02:22:02;7.30;;;2.35;;
59960;SDS011;55902;-37.980;-63.602;2022-08-19T02:24:29;3.03;;;2.30;;
59960;SDS011;55902;-37.980;-63.602;2022-08-19T02:26:56;2.90;;;2.10;;
59960;SDS011;55902;-37.980;-63.602;2022-08-19T02:29:28;2.88;;;2.50;;
59960;SDS011;55902;-37.980;-63.602;2022-08-19T02:31:55;2.75;;;2.20;;
59960;SDS011;55902;-37.980;-63.602;2022-08-19T02:34:26;2.40;;;2.10;;
59960;SDS011;55902;-37.980;-63.602;2022-08-19T02:36:52;3.35;;;2.38;;
59960;SDS011;55902;-37.980;-63.602;2022-08-19T02:39:23;3.95;;;2.38;;
59960;SDS011;55902;-37.980;-63.602;2022-08-19T02:41:51;3.38;;;2.58;;
59960;SDS011;55902;-37.980;-63.602;2022-08-19T02:44:22;3.85;;;2.60;;
59960;SDS011;55902;-37.980;-63.602;2022-08-19T02:46:49;4.13;;;2.80;;
59960;SDS011;55902;-37.980;-63.602;2022-08-19T02:49:20;5.57;;;4.20;;
59960;SDS011;55902;-37.980;-63.602;2022-08-19T02:51:47;5.50;;;3.65;;
59960;SDS011;55902;-37.980;-63.602;2022-08-19T02:54:14;6.95;;;4.00;;
59960;SDS011;55902;-37.980;-63.602;2022-08-19T02:56:42;3.38;;;2.70;;
59960;SDS011;55902;-37.980;-63.602;2022-08-19T02:59:10;2.70;;;2.38;;
59960;SDS011;55902;-37.980;-63.602;2022-08-19T03:01:41;2.55;;;2.20;;
59960;SDS011;55902;-37.980;-63.602;2022-08-19T03:04:09;2.30;;;2.10;;
59960;SDS011;55902;-37.980;-63.602;2022-08-19T03:06:41;2.42;;;2.15;;
59960;SDS011;55902;-37.980;-63.602;2022-08-19T03:09:11;2.50;;;2.30;;
59960;SDS011;55902;-37.980;-63.602;2022-08-19T03:11:39;2.33;;;2.10;;
59960;SDS011;55902;-37.980;-63.602;2022-08-19T03:14:06;2.28;;;2.08;;
59960;SDS011;55902;-37.980;-63.602;2022-08-19T03:16:36;2.30;;;1.90;;
59960;SDS011;55902;-37.980;-63.602;2022-08-19T03:19:12;3.35;;;2.10;;
59960;SDS011;55902;-37.980;-63.602;2022-08-19T03:21:39;2.35;;;2.15;;
59960;SDS011;55902;-37.980;-63.602;2022-08-19T03:24:14;2.38;;;1.90;;
59960;SDS011;55902;-37.980;-63.602;2022-08-19T03:26:43;4.82;;;3.40;;
59960;SDS011;55902;-37.980;-63.602;2022-08-19T03:29:16;3.35;;;2.95;;
59960;SDS011;55902;-37.980;-63.602;2022-08-19T03:31:44;3.40;;;3.10;;
59960;SDS011;55902;-37.980;-63.602;2022-08-19T03:34:13;3.30;;;2.80;;
59960;SDS011;55902;-37.980;-63.602;2022-08-19T03:36:47;4.20;;;2.80;;
59960;SDS011;55902;-37.980;-63.602;2022-08-19T03:39:15;6.63;;;3.30;;
59960;SDS011;55902;-37.980;-63.602;2022-08-19T03:41:43;5.43;;;3.20;;
59960;SDS011;55902;-37.980;-63.602;2022-08-19T03:44:15;4.30;;;2.40;;
59960;SDS011;55902;-37.980;-63.602;2022-08-19T03:46:47;3.53;;;2.60;;
59960;SDS011;55902;-37.980;-63.602;2022-08-19T03:49:21;2.70;;;2.38;;
59960;SDS011;55902;-37.980;-63.602;2022-08-19T03:51:49;2.40;;;2.10;;
59960;SDS011;55902;-37.980;-63.602;2022-08-19T03:54:21;2.30;;;2.10;;
59960;SDS011;55902;-37.980;-63.602;2022-08-19T03:56:51;2.40;;;2.20;;
59960;SDS011;55902;-37.980;-63.602;2022-08-19T03:59:25;2.40;;;2.20;;
59960;SDS011;55902;-37.980;-63.602;2022-08-19T04:01:58;2.50;;;2.30;;
59960;SDS011;55902;-37.980;-63.602;2022-08-19T04:04:26;2.38;;;2.15;;
59960;SDS011;55902;-37.980;-63.602;2022-08-19T04:06:54;2.72;;;2.40;;
59960;SDS011;55902;-37.980;-63.602;2022-08-19T04:09:26;2.58;;;2.30;;
59960;SDS011;55902;-37.980;-63.602;2022-08-19T04:11:54;2.90;;;2.60;;
59960;SDS011;55902;-37.980;-63.602;2022-08-19T04:14:27;3.38;;;2.40;;
59960;SDS011;55902;-37.980;-63.602;2022-08-19T04:16:59;2.50;;;2.30;;
59960;SDS011;55902;-37.980;-63.602;2022-08-19T04:19:30;2.50;;;2.30;;
59960;SDS011;55902;-37.980;-63.602;2022-08-19T04:22:02;2.72;;;2.53;;
59960;SDS011;55902;-37.980;-63.602;2022-08-19T04:24:33;5.03;;;2.53;;
59960;SDS011;55902;-37.980;-63.602;2022-08-19T04:27:01;3.28;;;2.95;;
59960;SDS011;55902;-37.980;-63.602;2022-08-19T04:29:32;3.20;;;2.90;;
59960;SDS011;55902;-37.980;-63.602;2022-08-19T04:31:59;4.03;;;3.10;;
59960;SDS011;55902;-37.980;-63.602;2022-08-19T04:34:30;4.70;;;3.40;;
59960;SDS011;55902;-37.980;-63.602;2022-08-19T04:37:05;3.72;;;3.22;;
59960;SDS011;55902;-37.980;-63.602;2022-08-19T04:39:38;3.88;;;3.13;;
59960;SDS011;55902;-37.980;-63.602;2022-08-19T04:42:23;3.33;;;2.90;;
59960;SDS011;55902;-37.980;-63.602;2022-08-19T04:45:12;4.07;;;3.00;;
59960;SDS011;55902;-37.980;-63.602;2022-08-19T04:47:40;4.37;;;3.10;;
59960;SDS011;55902;-37.980;-63.602;2022-08-19T04:50:14;4.03;;;3.10;;
59960;SDS011;55902;-37.980;-63.602;2022-08-19T04:52:45;4.45;;;3.00;;
59960;SDS011;55902;-37.980;-63.602;2022-08-19T04:55:12;4.63;;;2.90;;
59960;SDS011;55902;-37.980;-63.602;2022-08-19T04:57:39;3.50;;;2.95;;
59960;SDS011;55902;-37.980;-63.602;2022-08-19T05:00:07;3.33;;;2.90;;
59960;SDS011;55902;-37.980;-63.602;2022-08-19T05:02:39;4.22;;;2.60;;
59960;SDS011;55902;-37.980;-63.602;2022-08-19T05:05:11;3.63;;;2.75;;
59960;SDS011;55902;-37.980;-63.602;2022-08-19T05:07:38;2.90;;;2.60;;
59960;SDS011;55902;-37.980;-63.602;2022-08-19T05:10:09;3.70;;;2.50;;
59960;SDS011;55902;-37.980;-63.602;2022-08-19T05:12:36;2.83;;;2.60;;
59960;SDS011;55902;-37.980;-63.602;2022-08-19T05:15:08;2.90;;;2.60;;
59960;SDS011;55902;-37.980;-63.602;2022-08-19T05:17:36;2.60;;;2.40;;
59960;SDS011;55902;-37.980;-63.602;2022-08-19T05:20:04;2.55;;;2.35;;
59960;SDS011;55902;-37.980;-63.602;2022-08-19T05:22:54;2.92;;;2.30;;
59960;SDS011;55902;-37.980;-63.602;2022-08-19T05:25:22;3.25;;;2.60;;
59960;SDS011;55902;-37.980;-63.602;2022-08-19T05:27:49;2.40;;;2.20;;
59960;SDS011;55902;-37.980;-63.602;2022-08-19T05:30:16;2.80;;;2.60;;
59960;SDS011;55902;-37.980;-63.602;2022-08-19T05:32:44;2.80;;;2.50;;
59960;SDS011;55902;-37.980;-63.602;2022-08-19T05:35:13;2.60;;;2.40;;
59960;SDS011;55902;-37.980;-63.602;2022-08-19T05:37:40;2.85;;;2.40;;
59960;SDS011;55902;-37.980;-63.602;2022-08-19T05:40:11;2.53;;;2.28;;
59960;SDS011;55902;-37.980;-63.602;2022-08-19T05:42:38;2.47;;;2.10;;
59960;SDS011;55902;-37.980;-63.602;2022-08-19T05:45:08;2.28;;;2.10;;
59960;SDS011;55902;-37.980;-63.602;2022-08-19T05:47:36;2.30;;;2.10;;
59960;SDS011;55902;-37.980;-63.602;2022-08-19T05:50:06;2.40;;;2.20;;
59960;SDS011;55902;-37.980;-63.602;2022-08-19T05:52:33;3.05;;;2.10;;
59960;SDS011;55902;-37.980;-63.602;2022-08-19T05:55:03;2.10;;;2.00;;
59960;SDS011;55902;-37.980;-63.602;2022-08-19T05:57:31;2.72;;;2.10;;
59960;SDS011;55902;-37.980;-63.602;2022-08-19T06:00:03;2.28;;;2.10;;
59960;SDS011;55902;-37.980;-63.602;2022-08-19T06:02:35;2.40;;;2.20;;
59960;SDS011;55902;-37.980;-63.602;2022-08-19T06:05:06;2.20;;;2.10;;
59960;SDS011;55902;-37.980;-63.602;2022-08-19T06:07:35;2.25;;;2.10;;
59960;SDS011;55902;-37.980;-63.602;2022-08-19T06:10:07;2.40;;;2.20;;
59960;SDS011;55902;-37.980;-63.602;2022-08-19T06:12:36;2.20;;;2.00;;
59960;SDS011;55902;-37.980;-63.602;2022-08-19T06:15:09;2.10;;;1.90;;
59960;SDS011;55902;-37.980;-63.602;2022-08-19T06:17:39;2.20;;;2.10;;
59960;SDS011;55902;-37.980;-63.602;2022-08-19T06:20:08;2.38;;;2.17;;
59960;SDS011;55902;-37.980;-63.602;2022-08-19T06:22:39;2.17;;;2.00;;
59960;SDS011;55902;-37.980;-63.602;2022-08-19T06:25:13;2.30;;;2.10;;
59960;SDS011;55902;-37.980;-63.602;2022-08-19T06:27:44;3.05;;;2.00;;
59960;SDS011;55902;-37.980;-63.602;2022-08-19T06:30:11;2.30;;;2.10;;
59960;SDS011;55902;-37.980;-63.602;2022-08-19T06:32:39;2.20;;;2.10;;
59960;SDS011;55902;-37.980;-63.602;2022-08-19T06:35:10;2.20;;;2.00;;
59960;SDS011;55902;-37.980;-63.602;2022-08-19T06:37:40;2.22;;;2.03;;
59960;SDS011;55902;-37.980;-63.602;2022-08-19T06:40:08;2.20;;;2.00;;
59960;SDS011;55902;-37.980;-63.602;2022-08-19T06:42:36;2.10;;;2.00;;
59960;SDS011;55902;-37.980;-63.602;2022-08-19T06:45:08;2.20;;;2.10;;
59960;SDS011;55902;-37.980;-63.602;2022-08-19T06:47:38;2.38;;;2.17;;
59960;SDS011;55902;-37.980;-63.602;2022-08-19T06:50:05;2.10;;;2.00;;
59960;SDS011;55902;-37.980;-63.602;2022-08-19T06:52:37;2.00;;;1.90;;
59960;SDS011;55902;-37.980;-63.602;2022-08-19T06:55:04;2.20;;;2.10;;
59960;SDS011;55902;-37.980;-63.602;2022-08-19T06:57:34;2.30;;;2.10;;
59960;SDS011;55902;-37.980;-63.602;2022-08-19T07:00:05;2.20;;;2.00;;
59960;SDS011;55902;-37.980;-63.602;2022-08-19T07:02:36;2.40;;;2.20;;
59960;SDS011;55902;-37.980;-63.602;2022-08-19T07:05:03;2.97;;;1.90;;
59960;SDS011;55902;-37.980;-63.602;2022-08-19T07:07:31;2.25;;;1.98;;
59960;SDS011;55902;-37.980;-63.602;2022-08-19T07:10:03;2.83;;;2.00;;
59960;SDS011;55902;-37.980;-63.602;2022-08-19T07:12:31;2.25;;;2.00;;
59960;SDS011;55902;-37.980;-63.602;2022-08-19T07:14:59;2.17;;;1.95;;
59960;SDS011;55902;-37.980;-63.602;2022-08-19T07:17:30;2.00;;;1.90;;
59960;SDS011;55902;-37.980;-63.602;2022-08-19T07:19:58;2.00;;;1.90;;
59960;SDS011;55902;-37.980;-63.602;2022-08-19T07:22:29;2.10;;;1.90;;
59960;SDS011;55902;-37.980;-63.602;2022-08-19T07:24:56;1.90;;;1.80;;
59960;SDS011;55902;-37.980;-63.602;2022-08-19T07:27:23;2.00;;;1.90;;
59960;SDS011;55902;-37.980;-63.602;2022-08-19T07:29:50;2.00;;;1.90;;
59960;SDS011;55902;-37.980;-63.602;2022-08-19T07:32:18;2.20;;;2.00;;
59960;SDS011;55902;-37.980;-63.602;2022-08-19T07:34:45;2.10;;;1.90;;
59960;SDS011;55902;-37.980;-63.602;2022-08-19T07:37:15;2.10;;;2.00;;
59960;SDS011;55902;-37.980;-63.602;2022-08-19T07:39:42;2.13;;;1.98;;
59960;SDS011;55902;-37.980;-63.602;2022-08-19T07:42:09;2.00;;;1.90;;
59960;SDS011;55902;-37.980;-63.602;2022-08-19T07:44:40;2.53;;;2.00;;
59960;SDS011;55902;-37.980;-63.602;2022-08-19T07:47:07;1.90;;;1.80;;
59960;SDS011;55902;-37.980;-63.602;2022-08-19T07:49:37;1.90;;;1.80;;
59960;SDS011;55902;-37.980;-63.602;2022-08-19T07:52:06;3.10;;;2.00;;
59960;SDS011;55902;-37.980;-63.602;2022-08-19T07:54:37;1.90;;;1.80;;
59960;SDS011;55902;-37.980;-63.602;2022-08-19T07:57:06;2.00;;;1.90;;
59960;SDS011;55902;-37.980;-63.602;2022-08-19T07:59:34;1.90;;;1.80;;
59960;SDS011;55902;-37.980;-63.602;2022-08-19T08:02:05;2.08;;;1.98;;
59960;SDS011;55902;-37.980;-63.602;2022-08-19T08:04:33;2.00;;;1.90;;
59960;SDS011;55902;-37.980;-63.602;2022-08-19T08:07:18;2.00;;;1.90;;
59960;SDS011;55902;-37.980;-63.602;2022-08-19T08:10:04;2.05;;;1.90;;
59960;SDS011;55902;-37.980;-63.602;2022-08-19T08:12:35;2.00;;;1.90;;
59960;SDS011;55902;-37.980;-63.602;2022-08-19T08:15:11;2.15;;;1.90;;
59960;SDS011;55902;-37.980;-63.602;2022-08-19T08:17:44;2.00;;;1.90;;
59960;SDS011;55902;-37.980;-63.602;2022-08-19T08:20:14;2.60;;;2.10;;
59960;SDS011;55902;-37.980;-63.602;2022-08-19T08:22:45;2.35;;;1.90;;
59960;SDS011;55902;-37.980;-63.602;2022-08-19T08:25:30;1.90;;;1.80;;
59960;SDS011;55902;-37.980;-63.602;2022-08-19T08:27:58;2.20;;;1.80;;
59960;SDS011;55902;-37.980;-63.602;2022-08-19T08:30:27;1.92;;;1.80;;
59960;SDS011;55902;-37.980;-63.602;2022-08-19T08:32:56;2.13;;;1.98;;
59960;SDS011;55902;-37.980;-63.602;2022-08-19T08:35:26;1.98;;;1.88;;
59960;SDS011;55902;-37.980;-63.602;2022-08-19T08:37:53;2.30;;;1.98;;
59960;SDS011;55902;-37.980;-63.602;2022-08-19T08:40:29;2.22;;;2.03;;
59960;SDS011;55902;-37.980;-63.602;2022-08-19T08:43:06;2.20;;;2.00;;
59960;SDS011;55902;-37.980;-63.602;2022-08-19T08:45:47;2.20;;;2.00;;
59960;SDS011;55902;-37.980;-63.602;2022-08-19T08:48:37;2.00;;;1.90;;
59960;SDS011;55902;-37.980;-63.602;2022-08-19T08:51:27;2.00;;;1.90;;
59960;SDS011;55902;-37.980;-63.602;2022-08-19T08:54:04;2.20;;;2.00;;
59960;SDS011;55902;-37.980;-63.602;2022-08-19T08:56:32;2.10;;;2.00;;
59960;SDS011;55902;-37.980;-63.602;2022-08-19T08:59:00;2.55;;;1.90;;
59960;SDS011;55902;-37.980;-63.602;2022-08-19T09:01:33;4.70;;;2.28;;
59960;SDS011;55902;-37.980;-63.602;2022-08-19T09:04:05;3.38;;;2.10;;
59960;SDS011;55902;-37.980;-63.602;2022-08-19T09:12:03;2.28;;;2.10;;
59960;SDS011;55902;-37.980;-63.602;2022-08-19T09:14:39;2.63;;;2.42;;
59960;SDS011;55902;-37.980;-63.602;2022-08-19T09:17:11;3.00;;;2.40;;
59960;SDS011;55902;-37.980;-63.602;2022-08-19T09:22:35;3.25;;;1.90;;
59960;SDS011;55902;-37.980;-63.602;2022-08-19T09:25:03;2.10;;;1.90;;
59960;SDS011;55902;-37.980;-63.602;2022-08-19T09:27:33;2.00;;;1.90;;
59960;SDS011;55902;-37.980;-63.602;2022-08-19T09:30:03;2.10;;;2.00;;
59960;SDS011;55902;-37.980;-63.602;2022-08-19T09:32:32;2.10;;;2.00;;
59960;SDS011;55902;-37.980;-63.602;2022-08-19T09:34:59;2.10;;;2.00;;
59960;SDS011;55902;-37.980;-63.602;2022-08-19T09:37:27;2.25;;;2.00;;
59960;SDS011;55902;-37.980;-63.602;2022-08-19T09:39:54;2.20;;;2.05;;
59960;SDS011;55902;-37.980;-63.602;2022-08-19T09:42:21;2.00;;;1.90;;
59960;SDS011;55902;-37.980;-63.602;2022-08-19T09:44:50;2.10;;;1.90;;
59960;SDS011;55902;-37.980;-63.602;2022-08-19T09:47:17;2.00;;;1.90;;
59960;SDS011;55902;-37.980;-63.602;2022-08-19T09:49:44;2.40;;;2.00;;
59960;SDS011;55902;-37.980;-63.602;2022-08-19T09:52:14;2.00;;;1.90;;
59960;SDS011;55902;-37.980;-63.602;2022-08-19T09:54:41;2.63;;;2.42;;
59960;SDS011;55902;-37.980;-63.602;2022-08-19T09:57:30;2.53;;;2.22;;
59960;SDS011;55902;-37.980;-63.602;2022-08-19T09:59:57;2.50;;;2.30;;
59960;SDS011;55902;-37.980;-63.602;2022-08-19T10:02:27;2.38;;;2.17;;
59960;SDS011;55902;-37.980;-63.602;2022-08-19T10:05:35;3.35;;;2.15;;
59960;SDS011;55902;-37.980;-63.602;2022-08-19T10:08:17;2.65;;;2.10;;
59960;SDS011;55902;-37.980;-63.602;2022-08-19T10:13:17;4.13;;;2.80;;
59960;SDS011;55902;-37.980;-63.602;2022-08-19T10:15:50;6.80;;;4.45;;
59960;SDS011;55902;-37.980;-63.602;2022-08-19T10:18:19;8.32;;;5.10;;
59960;SDS011;55902;-37.980;-63.602;2022-08-19T10:20:47;5.90;;;4.20;;
59960;SDS011;55902;-37.980;-63.602;2022-08-19T10:23:16;5.90;;;3.40;;
59960;SDS011;55902;-37.980;-63.602;2022-08-19T10:25:45;2.70;;;2.50;;
59960;SDS011;55902;-37.980;-63.602;2022-08-19T10:28:13;2.78;;;2.30;;
59960;SDS011;55902;-37.980;-63.602;2022-08-19T10:31:03;2.42;;;2.22;;
59960;SDS011;55902;-37.980;-63.602;2022-08-19T10:33:41;3.53;;;2.20;;
59960;SDS011;55902;-37.980;-63.602;2022-08-19T10:36:10;4.45;;;2.30;;
59960;SDS011;55902;-37.980;-63.602;2022-08-19T10:38:43;3.40;;;3.10;;
59960;SDS011;55902;-37.980;-63.602;2022-08-19T10:41:12;2.60;;;2.40;;
59960;SDS011;55902;-37.980;-63.602;2022-08-19T10:43:43;3.55;;;2.40;;
59960;SDS011;55902;-37.980;-63.602;2022-08-19T10:46:12;2.60;;;2.40;;
59960;SDS011;55902;-37.980;-63.602;2022-08-19T10:48:41;2.25;;;2.10;;
59960;SDS011;55902;-37.980;-63.602;2022-08-19T10:51:10;2.40;;;2.20;;
59960;SDS011;55902;-37.980;-63.602;2022-08-19T10:53:56;3.45;;;2.40;;
59960;SDS011;55902;-37.980;-63.602;2022-08-19T10:56:25;2.60;;;2.40;;
59960;SDS011;55902;-37.980;-63.602;2022-08-19T10:59:11;2.47;;;2.28;;
59960;SDS011;55902;-37.980;-63.602;2022-08-19T11:01:39;3.55;;;2.33;;
59960;SDS011;55902;-37.980;-63.602;2022-08-19T11:04:07;2.50;;;2.30;;
59960;SDS011;55902;-37.980;-63.602;2022-08-19T11:06:36;2.30;;;2.10;;
59960;SDS011;55902;-37.980;-63.602;2022-08-19T11:09:04;2.97;;;2.30;;
59960;SDS011;55902;-37.980;-63.602;2022-08-19T11:11:31;2.35;;;2.15;;
59960;SDS011;55902;-37.980;-63.602;2022-08-19T11:13:58;2.53;;;2.20;;
59960;SDS011;55902;-37.980;-63.602;2022-08-19T11:16:26;2.40;;;2.20;;
59960;SDS011;55902;-37.980;-63.602;2022-08-19T11:18:57;24.55;;;3.88;;
59960;SDS011;55902;-37.980;-63.602;2022-08-19T11:21:29;3.95;;;2.15;;
59960;SDS011;55902;-37.980;-63.602;2022-08-19T11:23:59;2.17;;;2.00;;
59960;SDS011;55902;-37.980;-63.602;2022-08-19T11:26:29;2.50;;;2.00;;
59960;SDS011;55902;-37.980;-63.602;2022-08-19T11:28:57;2.05;;;1.95;;
59960;SDS011;55902;-37.980;-63.602;2022-08-19T11:31:26;2.20;;;2.00;;
59960;SDS011;55902;-37.980;-63.602;2022-08-19T11:33:56;3.78;;;2.10;;
59960;SDS011;55902;-37.980;-63.602;2022-08-19T11:36:25;2.60;;;2.10;;
59960;SDS011;55902;-37.980;-63.602;2022-08-19T11:38:55;2.30;;;2.10;;
59960;SDS011;55902;-37.980;-63.602;2022-08-19T11:42:04;2.35;;;2.00;;
59960;SDS011;55902;-37.980;-63.602;2022-08-19T11:44:52;3.88;;;2.33;;
59960;SDS011;55902;-37.980;-63.602;2022-08-19T11:47:19;4.03;;;2.50;;
59960;SDS011;55902;-37.980;-63.602;2022-08-19T11:49:46;2.50;;;2.30;;
59960;SDS011;55902;-37.980;-63.602;2022-08-19T11:52:13;4.60;;;2.50;;
59960;SDS011;55902;-37.980;-63.602;2022-08-19T11:54:40;2.28;;;2.10;;
59960;SDS011;55902;-37.980;-63.602;2022-08-19T11:57:08;2.97;;;2.10;;
59960;SDS011;55902;-37.980;-63.602;2022-08-19T12:00:19;5.57;;;2.40;;
59960;SDS011;55902;-37.980;-63.602;2022-08-19T12:02:53;4.75;;;2.97;;
59960;SDS011;55902;-37.980;-63.602;2022-08-19T12:05:54;3.28;;;2.72;;
59960;SDS011;55902;-37.980;-63.602;2022-08-19T12:08:30;2.10;;;2.00;;
59960;SDS011;55902;-37.980;-63.602;2022-08-19T12:10:57;2.83;;;1.90;;
59960;SDS011;55902;-37.980;-63.602;2022-08-19T12:13:30;2.60;;;1.90;;
59960;SDS011;55902;-37.980;-63.602;2022-08-19T12:15:57;2.40;;;1.90;;
59960;SDS011;55902;-37.980;-63.602;2022-08-19T12:18:24;2.85;;;1.88;;
59960;SDS011;55902;-37.980;-63.602;2022-08-19T12:20:54;1.80;;;1.70;;
59960;SDS011;55902;-37.980;-63.602;2022-08-19T12:23:21;3.28;;;1.73;;
59960;SDS011;55902;-37.980;-63.602;2022-08-19T12:25:48;1.65;;;1.55;;
59960;SDS011;55902;-37.980;-63.602;2022-08-19T12:28:18;1.95;;;1.60;;
59960;SDS011;55902;-37.980;-63.602;2022-08-19T12:31:05;1.60;;;1.50;;
59960;SDS011;55902;-37.980;-63.602;2022-08-19T12:33:32;1.92;;;1.60;;
59960;SDS011;55902;-37.980;-63.602;2022-08-19T12:36:03;2.33;;;1.50;;
59960;SDS011;55902;-37.980;-63.602;2022-08-19T12:38:32;1.83;;;1.60;;
59960;SDS011;55902;-37.980;-63.602;2022-08-19T12:41:02;4.53;;;1.60;;
59960;SDS011;55902;-37.980;-63.602;2022-08-19T12:43:33;1.70;;;1.60;;
59960;SDS011;55902;-37.980;-63.602;2022-08-19T12:46:01;1.50;;;1.40;;
59960;SDS011;55902;-37.980;-63.602;2022-08-19T12:48:46;1.50;;;1.40;;
59960;SDS011;55902;-37.980;-63.602;2022-08-19T12:51:14;4.50;;;1.48;;
59960;SDS011;55902;-37.980;-63.602;2022-08-19T12:53:45;2.83;;;1.50;;
59960;SDS011;55902;-37.980;-63.602;2022-08-19T12:56:12;1.40;;;1.30;;
59960;SDS011;55902;-37.980;-63.602;2022-08-19T12:58:40;1.50;;;1.40;;
59960;SDS011;55902;-37.980;-63.602;2022-08-19T13:01:17;1.92;;;1.30;;
59960;SDS011;55902;-37.980;-63.602;2022-08-19T13:04:03;3.35;;;1.30;;
59960;SDS011;55902;-37.980;-63.602;2022-08-19T13:06:30;4.57;;;1.30;;
59960;SDS011;55902;-37.980;-63.602;2022-08-19T13:08:57;1.73;;;1.20;;
59960;SDS011;55902;-37.980;-63.602;2022-08-19T13:11:25;3.97;;;1.42;;
59960;SDS011;55902;-37.980;-63.602;2022-08-19T13:13:52;1.65;;;1.30;;
59960;SDS011;55902;-37.980;-63.602;2022-08-19T13:16:20;4.75;;;1.70;;
59960;SDS011;55902;-37.980;-63.602;2022-08-19T13:19:07;3.90;;;3.00;;
59960;SDS011;55902;-37.980;-63.602;2022-08-19T13:21:34;1.65;;;1.27;;
59960;SDS011;55902;-37.980;-63.602;2022-08-19T13:24:01;1.52;;;1.13;;
59960;SDS011;55902;-37.980;-63.602;2022-08-19T13:26:28;2.35;;;1.10;;
59960;SDS011;55902;-37.980;-63.602;2022-08-19T13:28:55;2.30;;;1.13;;
59960;SDS011;55902;-37.980;-63.602;2022-08-19T13:31:41;1.55;;;1.20;;
59960;SDS011;55902;-37.980;-63.602;2022-08-19T13:34:32;2.88;;;1.05;;
59960;SDS011;55902;-37.980;-63.602;2022-08-19T13:37:02;1.30;;;1.00;;
59960;SDS011;55902;-37.980;-63.602;2022-08-19T13:39:30;1.23;;;0.88;;
59960;SDS011;55902;-37.980;-63.602;2022-08-19T13:41:58;1.73;;;1.25;;
59960;SDS011;55902;-37.980;-63.602;2022-08-19T13:44:29;1.92;;;1.10;;
59960;SDS011;55902;-37.980;-63.602;2022-08-19T13:47:04;6.05;;;1.50;;
59960;SDS011;55902;-37.980;-63.602;2022-08-19T13:49:42;1.75;;;1.17;;
59960;SDS011;55902;-37.980;-63.602;2022-08-19T13:52:20;1.48;;;1.00;;
59960;SDS011;55902;-37.980;-63.602;2022-08-19T13:54:47;3.88;;;2.83;;
59960;SDS011;55902;-37.980;-63.602;2022-08-19T13:57:19;1.42;;;0.90;;
59960;SDS011;55902;-37.980;-63.602;2022-08-19T13:59:46;2.08;;;1.23;;
59960;SDS011;55902;-37.980;-63.602;2022-08-19T14:02:22;3.30;;;1.90;;
59960;SDS011;55902;-37.980;-63.602;2022-08-19T14:08:16;1.95;;;0.90;;
59960;SDS011;55902;-37.980;-63.602;2022-08-19T14:10:46;2.17;;;0.82;;
59960;SDS011;55902;-37.980;-63.602;2022-08-19T14:13:15;1.73;;;1.00;;
59960;SDS011;55902;-37.980;-63.602;2022-08-19T14:15:49;1.35;;;0.90;;
59960;SDS011;55902;-37.980;-63.602;2022-08-19T14:18:17;3.38;;;0.85;;
59960;SDS011;55902;-37.980;-63.602;2022-08-19T14:20:51;1.75;;;0.80;;
59960;SDS011;55902;-37.980;-63.602;2022-08-19T14:23:19;4.28;;;0.93;;
59960;SDS011;55902;-37.980;-63.602;2022-08-19T14:25:45;2.67;;;1.10;;
59960;SDS011;55902;-37.980;-63.602;2022-08-19T14:28:12;2.92;;;1.10;;
59960;SDS011;55902;-37.980;-63.602;2022-08-19T14:30:39;1.10;;;0.80;;
59960;SDS011;55902;-37.980;-63.602;2022-08-19T14:33:07;1.40;;;0.90;;
59960;SDS011;55902;-37.980;-63.602;2022-08-19T14:35:34;3.40;;;0.90;;
59960;SDS011;55902;-37.980;-63.602;2022-08-19T14:38:12;3.33;;;0.98;;
59960;SDS011;55902;-37.980;-63.602;2022-08-19T14:41:33;5.57;;;0.75;;
59960;SDS011;55902;-37.980;-63.602;2022-08-19T14:47:39;4.28;;;1.02;;
59960;SDS011;55902;-37.980;-63.602;2022-08-19T14:50:25;20.92;;;6.25;;
59960;SDS011;55902;-37.980;-63.602;2022-08-19T14:53:11;2.83;;;0.70;;
59960;SDS011;55902;-37.980;-63.602;2022-08-19T14:55:46;3.35;;;0.80;;